e-Mail: Password: Lost your password? Click here. - Register a new user

c h a v e z j u a r e z . c o m

Weather - Tiempo - Wetter - Temps

METAR DATA MMMX (Mexico City)

Mexico City / Licenci, Mexico (MMMX) 19-26N 099-06W
Jul 28, 2017 - 11:46 AM EDT / 2017.07.28 1546 UTC
Wind: Calm:0
Visibility: 5 mile(s):0
Sky conditions: mostly clear
Temperature: 64 F (18 C)
Dew Point: 51 F (11 C)
Relative Humidity: 63%
Pressure (altimeter): 30.4 in. Hg (1029 hPa)
ob: MMMX 281546Z 00000KT 5SM FEW020 18/11 A3040 NOSIG RMK 8/100 HZY CI
cycle: 16

Mexico City

St. Prex




Current weather alarms for Switzerland


www.wetteralarm.ch